createdAt,value
2016-01-31T11:11:23.085Z,73
2016-01-31T11:12:23.276Z,73
2016-01-31T11:13:23.590Z,74
2016-01-31T11:14:25.316Z,74
2016-01-31T11:15:26.086Z,74
2016-01-31T11:16:26.839Z,73
2016-01-31T11:17:27.091Z,73
2016-01-31T11:18:27.344Z,73
2016-01-31T11:19:27.585Z,74
2016-01-31T11:20:28.134Z,74
2016-01-31T11:21:28.918Z,74
2016-01-31T11:22:29.890Z,74
2016-01-31T11:23:30.970Z,74
2016-01-31T11:24:32.692Z,75
2016-01-31T11:25:33.991Z,74
2016-01-31T11:26:35.009Z,74
2016-01-31T11:27:35.996Z,74
2016-01-31T11:28:37.046Z,74
2016-01-31T11:29:37.784Z,75
2016-01-31T11:30:39.068Z,74
2016-01-31T11:31:39.868Z,74
2016-01-31T11:32:40.323Z,73
2016-01-31T11:33:40.404Z,73
2016-01-31T11:34:42.127Z,74
2016-01-31T11:35:42.630Z,74
2016-01-31T11:36:43.397Z,74
2016-01-31T11:37:44.150Z,74
2016-01-31T11:38:44.919Z,74
2016-01-31T11:39:45.702Z,74
2016-01-31T11:40:46.018Z,74
2016-01-31T11:41:47.208Z,74
2016-01-31T11:42:48.244Z,74
2016-01-31T11:43:49.324Z,74
2016-01-31T11:44:51.091Z,74
2016-01-31T11:45:51.830Z,74
2016-01-31T11:46:52.567Z,73
2016-01-31T11:47:52.836Z,74
2016-01-31T11:48:53.322Z,73
2016-01-31T11:49:53.587Z,72
2016-01-31T11:50:53.308Z,73
2016-01-31T11:51:53.377Z,73
2016-01-31T11:52:53.317Z,72
2016-01-31T11:53:53.103Z,73
2016-01-31T11:54:54.840Z,73
2016-01-31T11:55:54.827Z,73
2016-01-31T11:56:55.096Z,73
2016-01-31T11:57:55.051Z,73
2016-01-31T11:58:55.059Z,73
2016-01-31T11:59:55.312Z,73
2016-01-31T12:00:55.299Z,73
2016-01-31T12:01:55.286Z,73
2016-01-31T12:02:55.305Z,73
2016-01-31T12:03:55.371Z,73
2016-01-31T12:04:57.077Z,73
2016-01-31T12:05:57.330Z,73
2016-01-31T12:06:57.567Z,73
2016-01-31T12:07:57.570Z,73
2016-01-31T12:08:57.619Z,72
2016-01-31T12:09:57.315Z,72
2016-01-31T12:10:57.080Z,72
2016-01-31T12:11:56.536Z,72
2016-01-31T12:12:56.274Z,72
2016-01-31T12:13:55.826Z,72
2016-01-31T12:14:57.562Z,72
2016-01-31T12:15:57.284Z,72
2016-01-31T12:16:57.005Z,72
2016-01-31T12:17:56.742Z,72
2016-01-31T12:18:56.500Z,72
2016-01-31T12:19:55.987Z,72
2016-01-31T12:20:55.208Z,72
2016-01-31T12:21:54.461Z,72
2016-01-31T12:22:53.668Z,72
2016-01-31T12:23:52.936Z,72
2016-01-31T12:24:54.673Z,72
2016-01-31T12:25:54.144Z,72
2016-01-31T12:26:53.618Z,72
2016-01-31T12:27:53.106Z,72
2016-01-31T12:28:52.343Z,72
2016-01-31T12:29:51.582Z,72
2016-01-31T12:30:51.022Z,72
2016-01-31T12:31:50.759Z,72
2016-01-31T12:32:50.512Z,72
2016-01-31T12:33:50.033Z,72
2016-01-31T12:34:51.817Z,72
2016-01-31T12:35:51.508Z,73
2016-01-31T12:36:51.510Z,72
2016-01-31T12:37:51.247Z,72
2016-01-31T12:38:50.563Z,72
2016-01-31T12:39:50.722Z,72
2016-01-31T12:40:50.459Z,72
2016-01-31T12:41:50.196Z,72
2016-01-31T12:42:49.969Z,72
2016-01-31T12:43:49.221Z,71
2016-01-31T12:44:50.958Z,72
2016-01-31T12:45:50.446Z,72
2016-01-31T12:46:49.955Z,72
2016-01-31T12:47:48.894Z,72
2016-01-31T12:48:48.116Z,72
2016-01-31T12:49:47.324Z,71
2016-01-31T12:50:46.311Z,71
2016-01-31T12:51:45.282Z,71
2016-01-31T12:52:44.254Z,71
2016-01-31T12:53:43.276Z,72
2016-01-31T12:54:44.998Z,72
2016-01-31T12:55:44.235Z,72
2016-01-31T12:56:43.442Z,71
2016-01-31T12:57:42.178Z,71
2016-01-31T12:58:40.866Z,70
2016-01-31T12:59:39.323Z,70
2016-01-31T13:00:37.762Z,70
2016-01-31T13:01:40.079Z,71
2016-01-31T13:02:38.772Z,71
2016-01-31T13:03:37.556Z,71
2016-01-31T13:04:39.278Z,71
2016-01-31T16:00:44.144Z,74
2016-01-31T16:01:44.913Z,73
2016-01-31T16:02:44.962Z,71
2016-01-31T16:03:43.700Z,71
2016-01-31T16:04:45.436Z,72
2016-01-31T16:05:44.908Z,72
2016-01-31T16:06:44.661Z,72
2016-01-31T16:07:44.367Z,73
2016-01-31T16:08:44.370Z,73
2016-01-31T16:09:44.622Z,73
2016-01-31T16:10:45.129Z,74
2016-01-31T16:11:45.898Z,74
2016-01-31T16:12:46.665Z,74
2016-01-31T16:13:47.528Z,73
2016-01-31T16:14:49.202Z,74
2016-01-31T16:15:50.022Z,74
2016-01-31T16:16:50.805Z,74
2016-01-31T16:17:51.441Z,74
2016-01-31T16:18:52.287Z,74
2016-01-31T16:19:53.040Z,74
2016-01-31T16:20:53.808Z,74
2016-01-31T16:21:54.562Z,74
2016-01-31T16:22:55.331Z,74
2016-01-31T16:23:55.724Z,74
2016-01-31T16:24:57.883Z,74
2016-01-31T16:25:58.650Z,74
2016-01-31T16:26:59.452Z,74
2016-01-31T16:28:00.533Z,74
2016-01-31T16:29:01.396Z,74
2016-01-31T16:30:01.711Z,74
2016-01-31T16:31:02.745Z,74
2016-01-31T16:32:03.514Z,74
2016-01-31T16:33:04.267Z,74
2016-01-31T16:34:05.348Z,74
2016-01-31T16:35:07.088Z,74
2016-01-31T16:36:08.107Z,75
2016-01-31T16:37:09.391Z,74
2016-01-31T16:38:10.410Z,75
2016-01-31T16:39:11.694Z,74
2016-01-31T16:40:12.728Z,74
2016-01-31T16:41:13.732Z,74
2016-01-31T16:42:14.781Z,74
2016-01-31T16:43:15.769Z,74
2016-01-31T16:44:16.865Z,74
2016-01-31T16:45:18.587Z,74
2016-01-31T16:46:19.606Z,74
2016-01-31T16:47:20.631Z,74
2016-01-31T16:48:21.649Z,74
2016-01-31T16:49:22.670Z,74
2016-01-31T16:50:23.720Z,74
2016-01-31T16:51:24.473Z,74
2016-01-31T16:52:25.492Z,74
2016-01-31T16:53:26.511Z,74
2016-01-31T16:54:27.606Z,75
2016-01-31T16:55:29.314Z,75
2016-01-31T16:56:30.599Z,75
2016-01-31T16:57:31.913Z,75
2016-01-31T16:58:33.135Z,75
2016-01-31T16:59:34.436Z,74
2016-01-31T17:00:35.189Z,74
2016-01-31T17:01:35.957Z,74
2016-01-31T17:02:36.976Z,74
2016-01-31T17:03:38.009Z,74
2016-01-31T17:04:39.079Z,74
2016-01-31T17:05:40.816Z,74
2016-01-31T17:06:41.570Z,74
2016-01-31T17:07:42.385Z,74
2016-01-31T17:08:43.170Z,74
2016-01-31T17:09:43.922Z,74
2016-01-31T17:10:44.648Z,74
2016-01-31T17:11:45.433Z,74
2016-01-31T17:12:46.169Z,73
2016-01-31T17:13:46.422Z,73
2016-01-31T17:14:46.737Z,73
2016-01-31T17:15:48.459Z,74
2016-01-31T17:16:49.243Z,74
2016-01-31T17:17:50.002Z,74
2016-01-31T17:18:51.020Z,74
2016-01-31T17:19:51.776Z,74
2016-01-31T17:20:52.545Z,74
2016-01-31T17:21:53.313Z,74
2016-01-31T17:22:54.081Z,74
2016-01-31T17:23:54.865Z,74
2016-01-31T17:24:55.681Z,73
2016-01-31T17:25:57.418Z,73
2016-01-31T17:26:57.904Z,73
2016-01-31T17:27:58.454Z,74
2016-01-31T17:28:59.175Z,73
2016-01-31T17:29:59.694Z,74
2016-01-31T17:31:00.464Z,74
2016-01-31T17:32:01.483Z,74
2016-01-31T17:33:02.548Z,74
2016-01-31T17:34:03.269Z,74
2016-01-31T17:35:04.116Z,74
2016-01-31T17:36:05.841Z,74
2016-01-31T17:37:06.593Z,74
2016-01-31T17:38:07.378Z,74
2016-01-31T17:39:08.131Z,74
2016-01-31T17:40:08.886Z,74
2016-01-31T17:41:09.670Z,74
2016-01-31T17:42:10.423Z,74
2016-01-31T17:43:11.207Z,74
2016-01-31T17:44:12.225Z,74
2016-01-31T17:45:13.040Z,74
2016-01-31T17:46:14.809Z,74
2016-01-31T17:47:15.812Z,75
2016-01-31T17:48:17.080Z,75
2016-01-31T17:49:18.366Z,75
2016-01-31T17:50:19.759Z,75
2016-01-31T17:51:21.060Z,75
2016-01-31T17:52:22.500Z,75
2016-01-31T17:53:24.112Z,75
2016-01-31T17:54:25.802Z,75
2016-01-31T17:55:27.634Z,75
2016-01-31T17:56:29.370Z,75
2016-01-31T17:57:31.185Z,76
2016-01-31T17:58:33.204Z,76
2016-01-31T17:59:35.270Z,76
2016-01-31T18:00:37.304Z,76
2016-01-31T18:01:39.354Z,75
2016-01-31T18:02:41.121Z,76
2016-01-31T18:03:43.296Z,75
2016-01-31T18:04:44.973Z,75
2016-01-31T18:05:46.834Z,75
2016-01-31T18:06:48.558Z,74
2016-01-31T18:07:49.327Z,73
2016-01-31T18:08:49.829Z,73
2016-01-31T18:09:50.347Z,74
2016-01-31T18:10:51.101Z,74
2016-01-31T18:11:52.136Z,74
2016-01-31T18:12:53.139Z,74
2016-01-31T18:13:54.219Z,74
2016-01-31T18:14:55.190Z,74
2016-01-31T18:15:56.274Z,74
2016-01-31T18:16:57.572Z,74
2016-01-31T18:17:58.763Z,74
2016-01-31T18:18:59.792Z,75
2016-01-31T18:20:01.077Z,75
2016-01-31T18:21:02.345Z,75
2016-01-31T18:22:03.676Z,75
2016-01-31T18:23:05.022Z,75
2016-01-31T18:24:06.182Z,75
2016-01-31T18:25:07.029Z,75
2016-01-31T18:26:08.798Z,75
2016-01-31T18:27:10.534Z,75
2016-01-31T18:28:11.818Z,75
2016-01-31T18:29:13.356Z,75
2016-01-31T18:30:14.640Z,75
2016-01-31T18:31:16.178Z,75
2016-01-31T18:32:17.977Z,76
2016-01-31T18:33:19.995Z,75
2016-01-31T18:34:21.795Z,75
2016-01-31T18:35:23.079Z,75
2016-01-31T18:36:24.411Z,75
2016-01-31T18:37:26.148Z,75
2016-01-31T18:38:27.417Z,75
2016-01-31T18:39:28.278Z,75
2016-01-31T18:40:30.019Z,75
2016-01-31T18:41:31.771Z,75
2016-01-31T18:42:33.587Z,75
2016-01-31T18:43:35.230Z,75
2016-01-31T18:44:36.672Z,75
2016-01-31T18:45:38.456Z,75
2016-01-31T18:46:40.302Z,75
2016-01-31T18:47:42.070Z,76
2016-01-31T18:48:44.091Z,76
2016-01-31T18:49:46.406Z,76
2016-01-31T18:50:48.690Z,76
2016-01-31T18:51:51.021Z,76
2016-01-31T18:52:53.305Z,76
2016-01-31T18:53:55.604Z,77
2016-01-31T18:54:54.373Z,77
2016-01-31T18:55:53.032Z,77
2016-01-31T18:56:51.800Z,77
2016-01-31T18:57:53.537Z,77
2016-01-31T18:58:52.259Z,77
2016-01-31T18:59:50.981Z,77
2016-01-31T19:00:49.703Z,77
2016-01-31T19:01:48.408Z,77
2016-01-31T19:02:47.114Z,77
2016-01-31T19:03:45.821Z,77
2016-01-31T19:04:44.543Z,77
2016-01-31T19:05:43.609Z,78
2016-01-31T19:06:42.815Z,78
2016-01-31T19:07:44.552Z,78
2016-01-31T19:08:43.773Z,78
2016-01-31T19:09:43.010Z,78
2016-01-31T19:10:42.497Z,78
2016-01-31T19:11:41.735Z,78
2016-01-31T19:12:40.957Z,77
2016-01-31T19:13:39.663Z,77
2016-01-31T19:14:38.384Z,77
2016-01-31T19:15:37.356Z,78
2016-01-31T19:16:36.672Z,78
2016-01-31T19:17:38.406Z,77
2016-01-31T19:18:37.362Z,78
2016-01-31T19:19:36.584Z,78
2016-01-31T19:20:35.825Z,77
2016-01-31T19:21:34.782Z,77
2016-01-31T19:22:33.753Z,77
2016-01-31T19:23:32.474Z,77
2016-01-31T19:24:31.181Z,77
2016-01-31T19:25:29.902Z,77
2016-01-31T19:26:28.686Z,77
2016-01-31T19:27:30.408Z,77
2016-01-31T19:28:29.129Z,77
2016-01-31T19:29:27.838Z,77
2016-01-31T19:30:26.559Z,77
2016-01-31T19:31:25.015Z,77
2016-01-31T19:32:23.486Z,77
2016-01-31T19:33:21.955Z,77
2016-01-31T19:33:28.567Z,50
2016-01-31T19:34:20.410Z,77
2016-01-31T19:35:18.852Z,77
2016-01-31T19:35:24.602Z,28
2016-01-31T19:36:17.635Z,77
2016-01-31T19:37:19.372Z,77
2016-01-31T19:38:18.109Z,77
2016-01-31T19:39:16.550Z,77
2016-01-31T19:40:15.255Z,77
2016-01-31T19:41:13.978Z,77
2016-01-31T19:42:12.699Z,77
2016-01-31T19:43:11.436Z,77
2016-01-31T19:44:10.127Z,77
2016-01-31T19:45:09.099Z,77
2016-01-31T19:46:07.868Z,77
2016-01-31T19:47:09.605Z,77
2016-01-31T19:48:08.590Z,78
2016-01-31T19:49:07.815Z,77
2016-01-31T19:50:06.786Z,78
2016-01-31T19:51:06.085Z,78
2016-01-31T19:52:05.244Z,78
2016-01-31T19:53:04.482Z,78
2016-01-31T19:54:04.031Z,78
2016-01-31T19:55:02.956Z,78
2016-01-31T19:56:01.834Z,78
2016-01-31T19:57:03.961Z,78
2016-01-31T19:58:03.198Z,78
2016-01-31T19:59:02.435Z,78
2016-01-31T20:00:01.970Z,78
2016-01-31T20:01:01.143Z,78
2016-01-31T20:02:00.678Z,78
2016-01-31T20:03:00.103Z,78
2016-01-31T20:03:59.589Z,78
2016-01-31T20:04:59.077Z,78
2016-01-31T20:05:58.627Z,78
2016-01-31T20:07:00.364Z,78
2016-01-31T20:07:59.851Z,78
2016-01-31T20:08:59.338Z,78
2016-01-31T20:09:58.841Z,78
2016-01-31T20:10:58.579Z,78
2016-01-31T20:11:58.049Z,78
2016-01-31T20:12:57.537Z,78
2016-01-31T20:13:57.291Z,78
2016-01-31T20:14:57.027Z,78
2016-01-31T20:15:56.828Z,78
2016-01-31T20:16:58.581Z,78
2016-01-31T20:17:58.380Z,78
2016-01-31T20:18:58.227Z,78
2016-01-31T20:19:56.849Z,78
2016-01-31T20:20:56.757Z,78
2016-01-31T20:21:56.494Z,78
2016-01-31T20:22:55.983Z,78
2016-01-31T20:23:55.453Z,79
2016-01-31T20:24:55.224Z,78
2016-01-31T20:25:55.008Z,78
2016-01-31T20:26:56.730Z,78
2016-01-31T20:27:55.952Z,78
2016-01-31T20:28:55.189Z,78
2016-01-31T20:29:54.414Z,78
2016-01-31T20:30:53.635Z,79
2016-01-31T20:31:53.388Z,79
2016-01-31T20:32:53.203Z,78
2016-01-31T20:33:52.618Z,78
2016-01-31T20:34:52.090Z,78
2016-01-31T20:35:51.624Z,79
2016-01-31T20:36:53.377Z,78
2016-01-31T20:37:52.598Z,78
2016-01-31T20:38:51.820Z,78
2016-01-31T20:39:51.307Z,78
2016-01-31T20:40:50.531Z,78
2016-01-31T20:41:49.768Z,78
2016-01-31T20:42:49.286Z,78
2016-01-31T20:43:48.742Z,78
2016-01-31T20:44:48.480Z,78
2016-01-31T20:45:48.279Z,78
2016-01-31T20:46:50.063Z,78
2016-01-31T20:47:49.522Z,78
2016-01-31T20:48:49.229Z,78
2016-01-31T20:49:48.919Z,78
2016-01-31T20:50:48.718Z,79
2016-01-31T20:51:48.721Z,79
2016-01-31T20:52:48.990Z,79
2016-01-31T20:53:49.212Z,79
2016-01-31T20:54:49.464Z,79
2016-01-31T20:55:49.811Z,79
2016-01-31T20:56:51.517Z,79
2016-01-31T20:57:51.769Z,79
2016-01-31T20:58:52.027Z,79
2016-01-31T20:59:52.280Z,79
2016-01-31T21:00:52.267Z,79
2016-01-31T21:01:52.286Z,79
2016-01-31T21:02:52.258Z,79
2016-01-31T21:03:52.542Z,79
2016-01-31T21:04:52.811Z,80
2016-01-31T21:05:53.346Z,80
2016-01-31T21:06:55.067Z,79
2016-01-31T21:07:55.319Z,79
2016-01-31T21:08:55.587Z,80
2016-01-31T21:09:56.092Z,80
2016-01-31T21:11:57.114Z,80
2016-01-31T21:12:57.881Z,80
2016-01-31T21:13:58.652Z,80
2016-01-31T21:14:59.421Z,80
2016-01-31T21:16:00.283Z,80
2016-01-31T21:17:01.973Z,80
2016-01-31T21:18:02.475Z,80
2016-01-31T21:19:03.244Z,80
2016-01-31T21:20:04.024Z,80
2016-01-31T21:21:04.776Z,80
2016-01-31T21:22:05.529Z,80
2016-01-31T21:24:07.581Z,80
2016-01-31T21:25:08.616Z,80
2016-01-31T21:27:11.184Z,80
2016-01-31T21:28:12.202Z,80
2016-01-31T21:29:13.205Z,81
2016-01-31T21:30:14.474Z,80
2016-01-31T21:31:15.523Z,81
2016-01-31T21:32:16.775Z,81
2016-01-31T21:33:18.060Z,81
2016-01-31T21:34:19.345Z,81
2016-01-31T21:35:20.612Z,81
2016-01-31T21:36:21.958Z,80
2016-01-31T21:37:23.695Z,81
2016-01-31T21:39:26.264Z,81
2016-01-31T21:40:27.517Z,81
2016-01-31T21:41:28.832Z,81
2016-01-31T21:42:30.085Z,80
2016-01-31T21:43:31.103Z,81
2016-01-31T21:44:32.387Z,81
2016-01-31T21:45:33.672Z,81
2016-01-31T21:46:35.002Z,81
2016-01-31T21:47:36.739Z,81
2016-01-31T21:48:38.039Z,81
2016-01-31T21:49:39.560Z,81
2016-01-31T21:50:40.849Z,81
2016-01-31T21:51:42.114Z,81
2016-01-31T21:52:43.398Z,81
2016-01-31T21:53:44.697Z,81
2016-01-31T21:54:45.966Z,81
2016-01-31T21:55:47.250Z,81
2016-01-31T21:56:48.613Z,81
2016-01-31T21:57:50.318Z,81
2016-01-31T21:58:51.589Z,81
2016-01-31T21:59:52.905Z,81
2016-01-31T22:00:54.142Z,81
2016-01-31T22:01:55.458Z,81
2016-01-31T22:02:56.976Z,81
2016-01-31T22:03:58.511Z,81
2016-01-31T22:05:00.044Z,81
2016-01-31T22:06:01.594Z,81
2016-01-31T22:07:03.175Z,81
2016-01-31T22:08:04.927Z,81
2016-01-31T22:09:06.180Z,81
2016-01-31T22:10:07.464Z,81
2016-01-31T22:11:08.779Z,81
2016-01-31T22:12:09.612Z,81
2016-01-31T22:13:11.567Z,82
2016-01-31T22:14:13.367Z,81
2016-01-31T22:15:14.901Z,81
2016-01-31T22:16:16.435Z,82
2016-01-31T22:17:18.282Z,82
2016-01-31T22:18:20.035Z,82
2016-01-31T22:19:21.820Z,81
2016-01-31T22:20:23.353Z,81
2016-01-31T22:21:24.638Z,81
2016-01-31T22:22:25.922Z,81
2016-01-31T22:23:27.441Z,82
2016-01-31T22:24:29.240Z,82
2016-01-31T22:25:31.045Z,82
2016-01-31T22:26:32.828Z,82
2016-01-31T22:27:34.691Z,82
2016-01-31T22:28:36.428Z,82
2016-01-31T22:29:38.228Z,82
2016-01-31T22:30:40.013Z,82
2016-01-31T22:31:41.797Z,82
2016-01-31T22:32:43.596Z,82
2016-01-31T22:33:45.646Z,82
2016-01-31T22:34:47.696Z,82
2016-01-31T22:35:49.745Z,82
2016-01-31T22:36:51.795Z,82
2016-01-31T22:37:53.642Z,82
2016-01-31T22:38:55.383Z,82
2016-01-31T22:39:57.166Z,82
2016-01-31T22:40:59.497Z,82
2016-01-31T22:42:01.282Z,82
2016-01-31T22:43:03.330Z,82
2016-01-31T22:44:05.381Z,82
2016-01-31T22:45:07.681Z,82
2016-01-31T22:46:09.731Z,82
2016-01-31T22:47:12.031Z,82
2016-01-31T22:48:14.174Z,82
2016-01-31T22:49:15.883Z,82
2016-01-31T22:50:18.199Z,82
2016-01-31T22:51:20.498Z,82
2016-01-31T22:52:22.814Z,82
2016-01-31T22:53:25.098Z,82
2016-01-31T22:54:27.430Z,82
2016-01-31T22:55:29.714Z,82
2016-01-31T22:56:32.044Z,82
2016-01-31T22:57:34.328Z,82
2016-01-31T22:58:36.691Z,82
2016-01-31T22:59:38.445Z,83
2016-01-31T23:00:36.885Z,83
2016-01-31T23:01:35.356Z,82
2016-01-31T23:02:37.656Z,82
2016-01-31T23:03:39.956Z,83
2016-01-31T23:04:38.427Z,83
2016-01-31T23:05:36.884Z,83
2016-01-31T23:06:35.340Z,83
2016-01-31T23:07:33.796Z,83
2016-01-31T23:08:31.893Z,82
2016-01-31T23:09:34.067Z,82
2016-01-31T23:10:36.368Z,83
2016-01-31T23:11:34.808Z,83
2016-01-31T23:12:33.264Z,83
2016-01-31T23:13:31.736Z,83
2016-01-31T23:14:30.206Z,83
2016-01-31T23:15:28.664Z,83
2016-01-31T23:16:27.120Z,82
2016-01-31T23:17:29.420Z,83
2016-01-31T23:18:27.938Z,83
2016-01-31T23:19:29.679Z,83
2016-01-31T23:20:28.148Z,83
2016-01-31T23:21:26.604Z,83
2016-01-31T23:22:25.089Z,83
2016-01-31T23:23:23.796Z,83
2016-01-31T23:24:22.252Z,83
2016-01-31T23:25:20.958Z,83
2016-01-31T23:26:19.414Z,83
2016-01-31T23:27:18.136Z,83
2016-01-31T23:28:16.686Z,83
2016-01-31T23:29:18.392Z,83
2016-01-31T23:30:17.097Z,83
2016-01-31T23:31:15.571Z,83
2016-01-31T23:32:14.276Z,83
2016-01-31T23:33:13.014Z,83
2016-01-31T23:34:11.719Z,83
2016-01-31T23:35:10.427Z,83
2016-01-31T23:36:09.149Z,83
2016-01-31T23:37:07.868Z,83
2016-01-31T23:38:06.636Z,83
2016-01-31T23:39:08.373Z,83
2016-01-31T23:40:07.097Z,83
2016-01-31T23:41:05.802Z,83
2016-01-31T23:42:04.524Z,83
2016-01-31T23:43:03.230Z,83
2016-01-31T23:44:01.953Z,83
2016-01-31T23:45:00.659Z,83
2016-01-31T23:45:59.380Z,83
2016-01-31T23:46:58.118Z,83
2016-01-31T23:47:56.901Z,83
2016-01-31T23:48:58.609Z,83
2016-01-31T23:49:57.346Z,83
2016-01-31T23:50:56.084Z,84
2016-01-31T23:51:55.018Z,84
2016-01-31T23:52:53.933Z,83
2016-01-31T23:53:52.717Z,83
2016-01-31T23:54:51.423Z,83
2016-01-31T23:55:50.148Z,83
2016-01-31T23:56:48.855Z,83
2016-01-31T23:57:47.639Z,84
2016-01-31T23:58:49.361Z,84
2016-01-31T23:59:48.332Z,84
